sensor_id;sensor_type;location;lat;lon;timestamp;pressure;altitude;pressure_sealevel;temperature;humidity
48352;BME280;34163;49.314;6.752;2023-04-20T02:23:55;99555.56;;;8.86;100.00
48352;BME280;34163;49.314;6.752;2023-04-20T02:26:21;99544.97;;;8.86;100.00
48352;BME280;34163;49.314;6.752;2023-04-20T02:28:46;99543.13;;;8.88;100.00
48352;BME280;34163;49.314;6.752;2023-04-20T02:31:11;99545.78;;;8.88;100.00
48352;BME280;34163;49.314;6.752;2023-04-20T02:33:36;99550.16;;;8.89;100.00
48352;BME280;34163;49.314;6.752;2023-04-20T02:36:02;99545.72;;;8.90;100.00
48352;BME280;34163;49.314;6.752;2023-04-20T02:38:28;99543.06;;;8.90;100.00
48352;BME280;34163;49.314;6.752;2023-04-20T02:40:53;99533.09;;;7.55;100.00
48352;BME280;34163;49.314;6.752;2023-04-20T02:43:18;99548.38;;;6.90;100.00
48352;BME280;34163;49.314;6.752;2023-04-20T02:45:46;99538.91;;;6.56;100.00
48352;BME280;34163;49.314;6.752;2023-04-20T02:48:11;99541.28;;;6.35;100.00
48352;BME280;34163;49.314;6.752;2023-04-20T02:50:37;99546.78;;;6.26;100.00
48352;BME280;34163;49.314;6.752;2023-04-20T02:53:05;99548.84;;;6.16;100.00
48352;BME280;34163;49.314;6.752;2023-04-20T02:55:31;99542.25;;;6.02;100.00
48352;BME280;34163;49.314;6.752;2023-04-20T02:57:56;99543.22;;;5.96;100.00
48352;BME280;34163;49.314;6.752;2023-04-20T03:00:21;99543.44;;;5.88;100.00
48352;BME280;34163;49.314;6.752;2023-04-20T03:02:47;99542.06;;;5.75;100.00
48352;BME280;34163;49.314;6.752;2023-04-20T03:05:15;99538.44;;;5.79;100.00
48352;BME280;34163;49.314;6.752;2023-04-20T03:07:40;99534.34;;;5.69;100.00
48352;BME280;34163;49.314;6.752;2023-04-20T03:10:05;99532.94;;;5.55;100.00
48352;BME280;34163;49.314;6.752;2023-04-20T03:12:31;99533.06;;;5.51;100.00
48352;BME280;34163;49.314;6.752;2023-04-20T03:14:56;99533.84;;;5.54;100.00
48352;BME280;34163;49.314;6.752;2023-04-20T03:17:21;99535.94;;;5.41;100.00
48352;BME280;34163;49.314;6.752;2023-04-20T03:19:47;99537.13;;;5.97;100.00
48352;BME280;34163;49.314;6.752;2023-04-20T03:22:12;99533.16;;;6.71;100.00
48352;BME280;34163;49.314;6.752;2023-04-20T03:24:37;99527.44;;;7.14;100.00
48352;BME280;34163;49.314;6.752;2023-04-20T03:27:02;99519.59;;;7.39;100.00
48352;BME280;34163;49.314;6.752;2023-04-20T03:29:28;99521.63;;;7.56;100.00
48352;BME280;34163;49.314;6.752;2023-04-20T03:31:53;99520.34;;;7.68;100.00
48352;BME280;34163;49.314;6.752;2023-04-20T03:34:18;99514.72;;;7.77;100.00
48352;BME280;34163;49.314;6.752;2023-04-20T03:36:43;99515.28;;;7.87;100.00
48352;BME280;34163;49.314;6.752;2023-04-20T03:39:09;99511.53;;;7.92;100.00
48352;BME280;34163;49.314;6.752;2023-04-20T03:41:34;99506.94;;;7.97;100.00
48352;BME280;34163;49.314;6.752;2023-04-20T03:43:59;99500.59;;;8.03;100.00
48352;BME280;34163;49.314;6.752;2023-04-20T03:46:24;99496.00;;;8.08;100.00
48352;BME280;34163;49.314;6.752;2023-04-20T03:48:50;99495.00;;;8.12;100.00
48352;BME280;34163;49.314;6.752;2023-04-20T03:51:15;99496.63;;;8.15;100.00
48352;BME280;34163;49.314;6.752;2023-04-20T03:53:40;99496.56;;;8.16;100.00
48352;BME280;34163;49.314;6.752;2023-04-20T03:56:05;99499.91;;;8.22;100.00
48352;BME280;34163;49.314;6.752;2023-04-20T03:58:31;99502.41;;;8.25;100.00
48352;BME280;34163;49.314;6.752;2023-04-20T07:58:09;99423.44;;;5.54;100.00
48352;BME280;34163;49.314;6.752;2023-04-20T08:00:43;99419.00;;;6.46;100.00
48352;BME280;34163;49.314;6.752;2023-04-20T08:03:23;99417.13;;;7.03;100.00
48352;BME280;34163;49.314;6.752;2023-04-20T08:05:48;99414.34;;;7.33;100.00
48352;BME280;34163;49.314;6.752;2023-04-20T08:08:13;99419.78;;;7.53;100.00
48352;BME280;34163;49.314;6.752;2023-04-20T08:10:38;99412.28;;;7.66;100.00
48352;BME280;34163;49.314;6.752;2023-04-20T08:13:04;99410.16;;;7.76;100.00
48352;BME280;34163;49.314;6.752;2023-04-20T08:15:29;99418.59;;;7.86;100.00
48352;BME280;34163;49.314;6.752;2023-04-20T08:17:55;99421.78;;;7.94;100.00
48352;BME280;34163;49.314;6.752;2023-04-20T08:20:20;99418.97;;;7.98;100.00
48352;BME280;34163;49.314;6.752;2023-04-20T08:22:45;99426.59;;;8.06;100.00
48352;BME280;34163;49.314;6.752;2023-04-20T08:25:18;99422.97;;;8.09;100.00
48352;BME280;34163;49.314;6.752;2023-04-20T08:27:43;99428.91;;;8.15;100.00
48352;BME280;34163;49.314;6.752;2023-04-20T08:30:08;99421.66;;;8.21;100.00
48352;BME280;34163;49.314;6.752;2023-04-20T08:32:34;99429.34;;;8.27;100.00
48352;BME280;34163;49.314;6.752;2023-04-20T08:34:59;99427.56;;;8.27;100.00
48352;BME280;34163;49.314;6.752;2023-04-20T08:37:25;99421.38;;;8.28;100.00
48352;BME280;34163;49.314;6.752;2023-04-20T08:39:52;99428.16;;;8.34;100.00
48352;BME280;34163;49.314;6.752;2023-04-20T08:42:20;99423.69;;;8.36;100.00
48352;BME280;34163;49.314;6.752;2023-04-20T08:47:51;99431.34;;;8.42;100.00
48352;BME280;34163;49.314;6.752;2023-04-20T08:50:17;99426.03;;;8.44;100.00
48352;BME280;34163;49.314;6.752;2023-04-20T08:53:02;99427.78;;;8.45;100.00
48352;BME280;34163;49.314;6.752;2023-04-20T08:55:29;99432.09;;;8.47;100.00
48352;BME280;34163;49.314;6.752;2023-04-20T08:57:55;99435.53;;;8.49;100.00
48352;BME280;34163;49.314;6.752;2023-04-20T09:00:20;99434.50;;;8.52;100.00
48352;BME280;34163;49.314;6.752;2023-04-20T09:02:52;99428.25;;;8.54;100.00
48352;BME280;34163;49.314;6.752;2023-04-20T09:05:28;99423.84;;;8.55;100.00
48352;BME280;34163;49.314;6.752;2023-04-20T09:07:54;99421.06;;;8.58;100.00
48352;BME280;34163;49.314;6.752;2023-04-20T09:10:21;99421.00;;;8.60;100.00
48352;BME280;34163;49.314;6.752;2023-04-20T09:12:48;99420.09;;;8.61;100.00
48352;BME280;34163;49.314;6.752;2023-04-20T09:15:22;99420.09;;;8.61;100.00
48352;BME280;34163;49.314;6.752;2023-04-20T09:21:29;99423.41;;;8.66;100.00
48352;BME280;34163;49.314;6.752;2023-04-20T09:29:36;99424.06;;;8.71;100.00
48352;BME280;34163;49.314;6.752;2023-04-20T09:32:04;99425.81;;;8.72;100.00
48352;BME280;34163;49.314;6.752;2023-04-20T09:34:30;99426.59;;;8.74;100.00
48352;BME280;34163;49.314;6.752;2023-04-20T09:36:55;99430.06;;;8.76;100.00
48352;BME280;34163;49.314;6.752;2023-04-20T09:39:22;99422.97;;;8.77;100.00
48352;BME280;34163;49.314;6.752;2023-04-20T09:41:48;99427.28;;;8.79;100.00
48352;BME280;34163;49.314;6.752;2023-04-20T09:44:32;99422.00;;;8.79;100.00
48352;BME280;34163;49.314;6.752;2023-04-20T09:47:08;99410.56;;;8.79;100.00
48352;BME280;34163;49.314;6.752;2023-04-20T09:49:34;99421.88;;;8.82;100.00
48352;BME280;34163;49.314;6.752;2023-04-20T09:52:05;99405.13;;;8.82;100.00
48352;BME280;34163;49.314;6.752;2023-04-20T09:54:38;99407.78;;;8.82;100.00
48352;BME280;34163;49.314;6.752;2023-04-20T09:57:03;99405.00;;;8.85;100.00
48352;BME280;34163;49.314;6.752;2023-04-20T09:59:30;99403.16;;;8.87;100.00
48352;BME280;34163;49.314;6.752;2023-04-20T10:01:57;99399.59;;;8.88;100.00
48352;BME280;34163;49.314;6.752;2023-04-20T10:04:22;99398.81;;;8.86;100.00
48352;BME280;34163;49.314;6.752;2023-04-20T10:06:54;99403.09;;;8.88;100.00
48352;BME280;34163;49.314;6.752;2023-04-20T10:09:24;99398.63;;;8.90;100.00
48352;BME280;34163;49.314;6.752;2023-04-20T10:11:50;99393.41;;;8.89;100.00
48352;BME280;34163;49.314;6.752;2023-04-20T10:14:17;99396.00;;;8.90;100.00
48352;BME280;34163;49.314;6.752;2023-04-20T10:19:42;99388.84;;;8.93;100.00
48352;BME280;34163;49.314;6.752;2023-04-20T10:22:11;99381.09;;;8.45;100.00
48352;BME280;34163;49.314;6.752;2023-04-20T10:24:37;99394.34;;;7.27;100.00
48352;BME280;34163;49.314;6.752;2023-04-20T10:27:25;99377.97;;;6.92;100.00
48352;BME280;34163;49.314;6.752;2023-04-20T10:29:49;99379.72;;;6.66;100.00
48352;BME280;34163;49.314;6.752;2023-04-20T10:32:25;99376.09;;;6.44;100.00
48352;BME280;34163;49.314;6.752;2023-04-20T10:35:03;99370.50;;;6.26;100.00
48352;BME280;34163;49.314;6.752;2023-04-20T10:37:30;99367.34;;;6.15;100.00
48352;BME280;34163;49.314;6.752;2023-04-20T10:39:56;99368.53;;;6.05;100.00
48352;BME280;34163;49.314;6.752;2023-04-20T10:42:21;99366.91;;;6.00;100.00
48352;BME280;34163;49.314;6.752;2023-04-20T10:44:50;99367.88;;;5.98;100.00
48352;BME280;34163;49.314;6.752;2023-04-20T10:47:16;99361.06;;;5.91;100.00
48352;BME280;34163;49.314;6.752;2023-04-20T10:49:42;99350.72;;;5.85;100.00
48352;BME280;34163;49.314;6.752;2023-04-20T10:52:08;99344.69;;;5.81;100.00
48352;BME280;34163;49.314;6.752;2023-04-20T10:54:37;99357.22;;;5.73;100.00
48352;BME280;34163;49.314;6.752;2023-04-20T10:57:05;99350.31;;;5.69;100.00
48352;BME280;34163;49.314;6.752;2023-04-20T10:59:30;99352.22;;;5.63;100.00
48352;BME280;34163;49.314;6.752;2023-04-20T11:01:58;99354.84;;;5.63;100.00
48352;BME280;34163;49.314;6.752;2023-04-20T11:04:28;99345.63;;;5.78;100.00
48352;BME280;34163;49.314;6.752;2023-04-20T11:06:53;99340.69;;;6.52;100.00
48352;BME280;34163;49.314;6.752;2023-04-20T11:09:22;99332.94;;;7.00;100.00
48352;BME280;34163;49.314;6.752;2023-04-20T11:12:06;99324.13;;;7.26;100.00
48352;BME280;34163;49.314;6.752;2023-04-20T11:17:37;99305.75;;;7.70;100.00
48352;BME280;34163;49.314;6.752;2023-04-20T11:20:09;99302.63;;;7.82;100.00
48352;BME280;34163;49.314;6.752;2023-04-20T11:22:36;99302.94;;;7.97;100.00
48352;BME280;34163;49.314;6.752;2023-04-20T11:25:06;99297.44;;;8.03;100.00
48352;BME280;34163;49.314;6.752;2023-04-20T11:27:32;99290.84;;;8.13;100.00
48352;BME280;34163;49.314;6.752;2023-04-20T11:30:00;99287.25;;;8.16;100.00
48352;BME280;34163;49.314;6.752;2023-04-20T11:32:29;99274.56;;;8.24;100.00
48352;BME280;34163;49.314;6.752;2023-04-20T11:34:58;99271.75;;;8.29;100.00
48352;BME280;34163;49.314;6.752;2023-04-20T11:37:31;99281.22;;;8.34;100.00
48352;BME280;34163;49.314;6.752;2023-04-20T11:40:00;99268.72;;;8.38;100.00
48352;BME280;34163;49.314;6.752;2023-04-20T11:42:26;99274.72;;;8.42;100.00
48352;BME280;34163;49.314;6.752;2023-04-20T11:44:52;99265.97;;;8.41;100.00
48352;BME280;34163;49.314;6.752;2023-04-20T11:47:17;99267.63;;;8.44;100.00
48352;BME280;34163;49.314;6.752;2023-04-20T11:49:42;99261.25;;;8.49;100.00
48352;BME280;34163;49.314;6.752;2023-04-20T11:52:07;99262.97;;;8.50;100.00
48352;BME280;34163;49.314;6.752;2023-04-20T11:54:33;99265.44;;;8.53;100.00
48352;BME280;34163;49.314;6.752;2023-04-20T11:56:59;99272.47;;;8.54;100.00
48352;BME280;34163;49.314;6.752;2023-04-20T11:59:24;99267.19;;;8.54;100.00
48352;BME280;34163;49.314;6.752;2023-04-20T12:01:50;99266.13;;;8.59;100.00
48352;BME280;34163;49.314;6.752;2023-04-20T12:04:18;99262.56;;;8.60;100.00
48352;BME280;34163;49.314;6.752;2023-04-20T12:06:43;99269.44;;;8.64;100.00
48352;BME280;34163;49.314;6.752;2023-04-20T12:09:09;99265.06;;;8.63;100.00
48352;BME280;34163;49.314;6.752;2023-04-20T12:11:34;99271.00;;;8.68;100.00
48352;BME280;34163;49.314;6.752;2023-04-20T12:13:59;99255.16;;;8.68;100.00
48352;BME280;34163;49.314;6.752;2023-04-20T12:16:25;99246.31;;;8.69;100.00
48352;BME280;34163;49.314;6.752;2023-04-20T12:18:50;99247.16;;;8.69;100.00
48352;BME280;34163;49.314;6.752;2023-04-20T12:21:18;99241.81;;;8.71;100.00
48352;BME280;34163;49.314;6.752;2023-04-20T12:23:43;99244.31;;;8.74;100.00
48352;BME280;34163;49.314;6.752;2023-04-20T12:26:09;99240.00;;;8.73;100.00
48352;BME280;34163;49.314;6.752;2023-04-20T12:28:34;99239.91;;;8.75;100.00
48352;BME280;34163;49.314;6.752;2023-04-20T12:30:59;99235.34;;;8.78;100.00
48352;BME280;34163;49.314;6.752;2023-04-20T12:33:25;99241.47;;;8.79;100.00
48352;BME280;34163;49.314;6.752;2023-04-20T12:35:50;99235.16;;;8.83;100.00
48352;BME280;34163;49.314;6.752;2023-04-20T12:38:15;99234.19;;;8.84;100.00
48352;BME280;34163;49.314;6.752;2023-04-20T12:40:41;99232.50;;;8.83;100.00
48352;BME280;34163;49.314;6.752;2023-04-20T12:43:06;99228.06;;;8.83;100.00
48352;BME280;34163;49.314;6.752;2023-04-20T12:45:31;99224.50;;;8.84;100.00
48352;BME280;34163;49.314;6.752;2023-04-20T12:47:57;99223.50;;;8.87;100.00
48352;BME280;34163;49.314;6.752;2023-04-20T12:50:23;99230.44;;;8.89;100.00
48352;BME280;34163;49.314;6.752;2023-04-20T12:52:48;99224.38;;;8.87;100.00
48352;BME280;34163;49.314;6.752;2023-04-20T12:55:15;99231.38;;;8.88;100.00
48352;BME280;34163;49.314;6.752;2023-04-20T12:57:41;99226.97;;;8.89;100.00
48352;BME280;34163;49.314;6.752;2023-04-20T13:00:07;99221.59;;;8.90;100.00
48352;BME280;34163;49.314;6.752;2023-04-20T13:02:32;99214.47;;;8.93;100.00
48352;BME280;34163;49.314;6.752;2023-04-20T13:04:58;99202.03;;;8.95;100.00
48352;BME280;34163;49.314;6.752;2023-04-20T13:07:23;99204.75;;;8.93;100.00
48352;BME280;34163;49.314;6.752;2023-04-20T13:09:48;99202.03;;;8.95;100.00
48352;BME280;34163;49.314;6.752;2023-04-20T13:12:14;99205.53;;;8.95;100.00
48352;BME280;34163;49.314;6.752;2023-04-20T13:14:39;99203.75;;;8.96;100.00
48352;BME280;34163;49.314;6.752;2023-04-20T13:17:04;99203.84;;;7.69;100.00
48352;BME280;34163;49.314;6.752;2023-04-20T13:19:31;99200.16;;;7.05;100.00
48352;BME280;34163;49.314;6.752;2023-04-20T13:21:56;99205.84;;;6.69;100.00
48352;BME280;34163;49.314;6.752;2023-04-20T13:24:21;99201.97;;;6.56;100.00
48352;BME280;34163;49.314;6.752;2023-04-20T13:26:47;99195.56;;;6.38;100.00
48352;BME280;34163;49.314;6.752;2023-04-20T13:29:12;99196.69;;;6.31;100.00
48352;BME280;34163;49.314;6.752;2023-04-20T13:31:38;99186.63;;;6.17;100.00
48352;BME280;34163;49.314;6.752;2023-04-20T13:34:04;99187.88;;;6.07;100.00
48352;BME280;34163;49.314;6.752;2023-04-20T13:36:30;99186.31;;;6.01;100.00
48352;BME280;34163;49.314;6.752;2023-04-20T13:38:56;99179.50;;;5.94;100.00
48352;BME280;34163;49.314;6.752;2023-04-20T13:41:21;99178.63;;;5.93;100.00
48352;BME280;34163;49.314;6.752;2023-04-20T13:43:50;99174.66;;;5.81;100.00
48352;BME280;34163;49.314;6.752;2023-04-20T13:46:15;99174.81;;;5.77;100.00
48352;BME280;34163;49.314;6.752;2023-04-20T13:48:40;99171.19;;;5.81;100.00
48352;BME280;34163;49.314;6.752;2023-04-20T13:51:06;99186.25;;;5.74;100.00
48352;BME280;34163;49.314;6.752;2023-04-20T13:53:31;99208.59;;;5.61;100.00
48352;BME280;34163;49.314;6.752;2023-04-20T13:55:56;99203.59;;;5.53;100.00
48352;BME280;34163;49.314;6.752;2023-04-20T13:58:21;99213.47;;;5.45;100.00
48352;BME280;34163;49.314;6.752;2023-04-20T14:00:47;99206.72;;;5.64;100.00
48352;BME280;34163;49.314;6.752;2023-04-20T14:03:12;99204.78;;;5.71;100.00
48352;BME280;34163;49.314;6.752;2023-04-20T14:05:39;99211.13;;;6.44;100.00
48352;BME280;34163;49.314;6.752;2023-04-20T14:08:04;99204.25;;;6.89;100.00
48352;BME280;34163;49.314;6.752;2023-04-20T14:10:31;99198.88;;;7.16;100.00
48352;BME280;34163;49.314;6.752;2023-04-20T14:12:56;99190.94;;;7.39;100.00
48352;BME280;34163;49.314;6.752;2023-04-20T14:15:22;99199.09;;;7.55;100.00
48352;BME280;34163;49.314;6.752;2023-04-20T14:17:47;99190.59;;;7.71;100.00
48352;BME280;34163;49.314;6.752;2023-04-20T14:20:13;99188.38;;;7.82;100.00
48352;BME280;34163;49.314;6.752;2023-04-20T14:22:38;99181.78;;;7.92;100.00
48352;BME280;34163;49.314;6.752;2023-04-20T14:25:04;99182.38;;;7.99;100.00
48352;BME280;34163;49.314;6.752;2023-04-20T14:27:29;99181.16;;;8.08;100.00
48352;BME280;34163;49.314;6.752;2023-04-20T14:29:55;99180.00;;;8.13;100.00
48352;BME280;34163;49.314;6.752;2023-04-20T14:32:20;99176.22;;;8.21;100.00
48352;BME280;34163;49.314;6.752;2023-04-20T14:34:45;99175.13;;;8.25;100.00
48352;BME280;34163;49.314;6.752;2023-04-20T14:37:11;99180.28;;;8.28;100.00
48352;BME280;34163;49.314;6.752;2023-04-20T14:39:36;99182.72;;;8.32;100.00
48352;BME280;34163;49.314;6.752;2023-04-20T14:42:01;99188.81;;;8.34;100.00
48352;BME280;34163;49.314;6.752;2023-04-20T14:44:27;99237.84;;;8.40;100.00
48352;BME280;34163;49.314;6.752;2023-04-20T14:46:52;99232.28;;;8.48;100.00
48352;BME280;34163;49.314;6.752;2023-04-20T14:49:18;99231.28;;;8.50;100.00
48352;BME280;34163;49.314;6.752;2023-04-20T14:51:43;99237.34;;;8.52;100.00
48352;BME280;34163;49.314;6.752;2023-04-20T14:54:08;99231.13;;;8.53;100.00
48352;BME280;34163;49.314;6.752;2023-04-20T14:56:33;99227.56;;;8.54;100.00
48352;BME280;34163;49.314;6.752;2023-04-20T14:58:59;99221.31;;;8.57;100.00
48352;BME280;34163;49.314;6.752;2023-04-20T15:01:25;99231.63;;;8.63;100.00
48352;BME280;34163;49.314;6.752;2023-04-20T15:03:51;99225.25;;;8.67;100.00
48352;BME280;34163;49.314;6.752;2023-04-20T15:06:16;99234.97;;;8.67;100.00
48352;BME280;34163;49.314;6.752;2023-04-20T15:08:41;99230.47;;;8.69;100.00
48352;BME280;34163;49.314;6.752;2023-04-20T15:11:07;99237.47;;;8.70;100.00
48352;BME280;34163;49.314;6.752;2023-04-20T15:13:32;99234.84;;;8.70;100.00
48352;BME280;34163;49.314;6.752;2023-04-20T15:15:58;99242.63;;;8.73;100.00
48352;BME280;34163;49.314;6.752;2023-04-20T15:18:23;99241.69;;;8.74;100.00
48352;BME280;34163;49.314;6.752;2023-04-20T15:20:51;99237.22;;;8.76;100.00
48352;BME280;34163;49.314;6.752;2023-04-20T15:23:17;99238.91;;;8.77;100.00
48352;BME280;34163;49.314;6.752;2023-04-20T15:25:42;99238.00;;;8.78;100.00
48352;BME280;34163;49.314;6.752;2023-04-20T15:28:07;99238.78;;;8.80;100.00
48352;BME280;34163;49.314;6.752;2023-04-20T15:30:33;99229.09;;;8.81;100.00
48352;BME280;34163;49.314;6.752;2023-04-20T15:32:58;99236.94;;;8.82;100.00
48352;BME280;34163;49.314;6.752;2023-04-20T15:35:26;99225.56;;;8.80;100.00
48352;BME280;34163;49.314;6.752;2023-04-20T15:37:51;99229.03;;;8.82;100.00
48352;BME280;34163;49.314;6.752;2023-04-20T15:40:22;99226.28;;;8.84;100.00
48352;BME280;34163;49.314;6.752;2023-04-20T15:42:47;99219.22;;;8.84;100.00
48352;BME280;34163;49.314;6.752;2023-04-20T15:45:21;99218.28;;;8.85;100.00
48352;BME280;34163;49.314;6.752;2023-04-20T15:47:47;99215.56;;;8.87;100.00
48352;BME280;34163;49.314;6.752;2023-04-20T15:50:12;99212.03;;;8.88;100.00
48352;BME280;34163;49.314;6.752;2023-04-20T15:52:37;99218.16;;;8.88;100.00
48352;BME280;34163;49.314;6.752;2023-04-20T15:55:03;99215.44;;;8.90;100.00
48352;BME280;34163;49.314;6.752;2023-04-20T15:57:28;99218.09;;;8.90;100.00
48352;BME280;34163;49.314;6.752;2023-04-20T15:59:54;99208.41;;;8.90;100.00
48352;BME280;34163;49.314;6.752;2023-04-20T16:02:19;99218.00;;;8.91;100.00
48352;BME280;34163;49.314;6.752;2023-04-20T16:04:45;99220.59;;;8.93;100.00
48352;BME280;34163;49.314;6.752;2023-04-20T16:07:10;99219.69;;;8.94;100.00
48352;BME280;34163;49.314;6.752;2023-04-20T16:09:38;99219.63;;;8.34;100.00
48352;BME280;34163;49.314;6.752;2023-04-20T16:12:21;99224.31;;;7.17;100.00
48352;BME280;34163;49.314;6.752;2023-04-20T16:14:47;99222.13;;;6.81;100.00
48352;BME280;34163;49.314;6.752;2023-04-20T16:17:12;99220.13;;;6.64;100.00
48352;BME280;34163;49.314;6.752;2023-04-20T16:19:38;99223.22;;;6.50;100.00
48352;BME280;34163;49.314;6.752;2023-04-20T16:22:03;99227.81;;;6.45;100.00
48352;BME280;34163;49.314;6.752;2023-04-20T16:24:29;99229.16;;;6.30;100.00
48352;BME280;34163;49.314;6.752;2023-04-20T16:26:54;99231.91;;;6.27;100.00
48352;BME280;34163;49.314;6.752;2023-04-20T16:29:20;99235.03;;;6.13;100.00
48352;BME280;34163;49.314;6.752;2023-04-20T16:31:46;99233.59;;;6.03;100.00
48352;BME280;34163;49.314;6.752;2023-04-20T16:34:11;99230.81;;;6.07;100.00
48352;BME280;34163;49.314;6.752;2023-04-20T16:36:36;99234.56;;;6.00;100.00
48352;BME280;34163;49.314;6.752;2023-04-20T16:39:02;99231.31;;;5.90;100.00
48352;BME280;34163;49.314;6.752;2023-04-20T16:41:30;99246.59;;;5.79;100.00
48352;BME280;34163;49.314;6.752;2023-04-20T16:43:55;99236.06;;;5.79;100.00
48352;BME280;34163;49.314;6.752;2023-04-20T16:46:21;99231.03;;;5.73;100.00
48352;BME280;34163;49.314;6.752;2023-04-20T16:48:49;99232.69;;;5.75;100.00
48352;BME280;34163;49.314;6.752;2023-04-20T16:51:14;99248.75;;;5.66;100.00
48352;BME280;34163;49.314;6.752;2023-04-20T16:53:41;99241.94;;;5.60;100.00
48352;BME280;34163;49.314;6.752;2023-04-20T16:56:06;99247.38;;;5.54;100.00
48352;BME280;34163;49.314;6.752;2023-04-20T16:58:32;99239.75;;;5.45;100.00
48352;BME280;34163;49.314;6.752;2023-04-20T17:01:03;99237.56;;;5.88;100.00
48352;BME280;34163;49.314;6.752;2023-04-20T17:03:28;99236.28;;;6.53;100.00
48352;BME280;34163;49.314;6.752;2023-04-20T17:05:54;99230.81;;;6.83;100.00
48352;BME280;34163;49.314;6.752;2023-04-20T17:08:19;99229.03;;;7.08;100.00
48352;BME280;34163;49.314;6.752;2023-04-20T17:10:45;99236.28;;;7.25;100.00
48352;BME280;34163;49.314;6.752;2023-04-20T17:13:10;99237.47;;;7.40;100.00
48352;BME280;34163;49.314;6.752;2023-04-20T17:15:35;99232.66;;;7.52;100.00
48352;BME280;34163;49.314;6.752;2023-04-20T17:18:00;99230.63;;;7.58;100.00
48352;BME280;34163;49.314;6.752;2023-04-20T17:20:26;99235.47;;;7.69;100.00
48352;BME280;34163;49.314;6.752;2023-04-20T17:22:51;99234.19;;;7.79;100.00
48352;BME280;34163;49.314;6.752;2023-04-20T17:25:16;99232.91;;;7.90;100.00
48352;BME280;34163;49.314;6.752;2023-04-20T17:27:41;99244.00;;;7.98;100.00
48352;BME280;34163;49.314;6.752;2023-04-20T17:30:07;99248.16;;;8.04;100.00
48352;BME280;34163;49.314;6.752;2023-04-20T17:32:32;99240.91;;;8.09;100.00
48352;BME280;34163;49.314;6.752;2023-04-20T17:34:58;99247.59;;;8.17;100.00
48352;BME280;34163;49.314;6.752;2023-04-20T17:37:23;99250.94;;;8.21;100.00
48352;BME280;34163;49.314;6.752;2023-04-20T17:39:48;99251.75;;;8.23;100.00
48352;BME280;34163;49.314;6.752;2023-04-20T17:42:13;99265.69;;;8.27;100.00
48352;BME280;34163;49.314;6.752;2023-04-20T17:44:39;99262.84;;;8.31;100.00
48352;BME280;34163;49.314;6.752;2023-04-20T17:47:05;99265.31;;;8.36;100.00
48352;BME280;34163;49.314;6.752;2023-04-20T17:49:32;99258.19;;;8.38;100.00
48352;BME280;34163;49.314;6.752;2023-04-20T17:52:01;99254.59;;;8.39;100.00
48352;BME280;34163;49.314;6.752;2023-04-20T17:54:27;99257.09;;;8.42;100.00
48352;BME280;34163;49.314;6.752;2023-04-20T17:56:55;99262.34;;;8.44;100.00
48352;BME280;34163;49.314;6.752;2023-04-20T17:59:22;99258.66;;;8.48;100.00
48352;BME280;34163;49.314;6.752;2023-04-20T18:01:47;99257.69;;;8.50;100.00
48352;BME280;34163;49.314;6.752;2023-04-20T18:04:15;99259.38;;;8.51;100.00
48352;BME280;34163;49.314;6.752;2023-04-20T18:06:41;99254.81;;;8.55;100.00
48352;BME280;34163;49.314;6.752;2023-04-20T18:09:06;99267.13;;;8.56;100.00
48352;BME280;34163;49.314;6.752;2023-04-20T18:11:34;99258.28;;;8.57;100.00
48352;BME280;34163;49.314;6.752;2023-04-20T18:13:59;99258.22;;;8.59;100.00
48352;BME280;34163;49.314;6.752;2023-04-20T18:16:25;99261.56;;;8.62;100.00
48352;BME280;34163;49.314;6.752;2023-04-20T18:18:50;99254.56;;;8.61;100.00
48352;BME280;34163;49.314;6.752;2023-04-20T18:21:16;99251.88;;;8.63;100.00
48352;BME280;34163;49.314;6.752;2023-04-20T18:23:43;99249.16;;;8.64;100.00
48352;BME280;34163;49.314;6.752;2023-04-20T18:26:09;99251.66;;;8.67;100.00
48352;BME280;34163;49.314;6.752;2023-04-20T18:28:41;99256.88;;;8.69;100.00
48352;BME280;34163;49.314;6.752;2023-04-20T18:31:06;99252.44;;;8.69;100.00
48352;BME280;34163;49.314;6.752;2023-04-20T18:33:31;99251.59;;;8.69;100.00
48352;BME280;34163;49.314;6.752;2023-04-20T18:35:57;99249.66;;;8.72;100.00
48352;BME280;34163;49.314;6.752;2023-04-20T18:38:22;99252.31;;;8.72;100.00
48352;BME280;34163;49.314;6.752;2023-04-20T18:40:47;99247.03;;;8.72;100.00
48352;BME280;34163;49.314;6.752;2023-04-20T18:43:13;99247.91;;;8.73;100.00
48352;BME280;34163;49.314;6.752;2023-04-20T18:45:38;99253.84;;;8.78;100.00
48352;BME280;34163;49.314;6.752;2023-04-20T18:48:03;99250.28;;;8.79;100.00
48352;BME280;34163;49.314;6.752;2023-04-20T18:50:47;99252.06;;;8.79;100.00
48352;BME280;34163;49.314;6.752;2023-04-20T18:53:14;99255.56;;;8.79;100.00
48352;BME280;34163;49.314;6.752;2023-04-20T18:55:42;99254.63;;;8.80;100.00
48352;BME280;34163;49.314;6.752;2023-04-20T18:58:10;99259.84;;;8.82;100.00
48352;BME280;34163;49.314;6.752;2023-04-20T19:00:35;99261.63;;;8.81;100.00
48352;BME280;34163;49.314;6.752;2023-04-20T19:03:00;99265.06;;;8.83;100.00
48352;BME280;34163;49.314;6.752;2023-04-20T19:05:28;99264.16;;;8.84;100.00
48352;BME280;34163;49.314;6.752;2023-04-20T19:07:54;99260.56;;;8.85;100.00
48352;BME280;34163;49.314;6.752;2023-04-20T19:10:20;99264.94;;;8.86;100.00
48352;BME280;34163;49.314;6.752;2023-04-20T19:12:45;99262.28;;;8.86;100.00
48352;BME280;34163;49.314;6.752;2023-04-20T19:15:13;99264.94;;;8.86;100.00
48352;BME280;34163;49.314;6.752;2023-04-20T19:17:38;99259.66;;;8.86;100.00
48352;BME280;34163;49.314;6.752;2023-04-20T19:20:03;99267.50;;;8.88;100.00
48352;BME280;34163;49.314;6.752;2023-04-20T19:22:29;99264.84;;;8.88;100.00
48352;BME280;34163;49.314;6.752;2023-04-20T19:24:56;99264.78;;;8.89;100.00
48352;BME280;34163;49.314;6.752;2023-04-20T19:27:21;99268.34;;;8.88;100.00
48352;BME280;34163;49.314;6.752;2023-04-20T19:29:47;99268.22;;;8.91;100.00
48352;BME280;34163;49.314;6.752;2023-04-20T19:32:12;99261.22;;;8.90;100.00
48352;BME280;34163;49.314;6.752;2023-04-20T19:34:37;99267.38;;;8.91;100.00